createdAt,value
2018-06-23T00:02:21.675Z,97.30
2018-06-23T00:04:50.176Z,97.30
2018-06-23T00:07:18.730Z,97.50
2018-06-23T00:09:47.254Z,97.90
2018-06-23T00:14:44.220Z,97.50
2018-06-23T00:19:41.367Z,97.90
2018-06-23T00:22:09.921Z,97.70
2018-06-23T00:24:38.515Z,97.40
2018-06-23T00:27:06.987Z,97.40
2018-06-23T00:29:35.537Z,97.30
2018-06-23T00:32:04.107Z,97.50
2018-06-23T00:34:32.620Z,97.50
2018-06-23T00:37:01.110Z,97.50
2018-06-23T00:39:29.846Z,97.60
2018-06-23T00:41:58.672Z,97.40
2018-06-23T00:44:27.392Z,97.50
2018-06-23T00:46:56.099Z,97.30
2018-06-23T00:49:24.716Z,97.60
2018-06-23T00:51:53.230Z,97.50
2018-06-23T00:54:21.867Z,97.80
2018-06-23T00:56:50.632Z,97.70
2018-06-23T00:59:30.387Z,97.90
2018-06-23T01:01:59.399Z,97.80
2018-06-23T01:04:27.927Z,98.00
2018-06-23T01:06:56.446Z,98.20
2018-06-23T01:09:25.196Z,98.00
2018-06-23T01:11:54.188Z,98.10
2018-06-23T01:14:22.763Z,98.10
2018-06-23T01:16:51.287Z,97.80
2018-06-23T01:19:19.784Z,97.90
2018-06-23T01:21:48.367Z,97.90
2018-06-23T01:24:17.012Z,97.90
2018-06-23T01:29:13.876Z,98.00
2018-06-23T01:31:42.628Z,98.10
2018-06-23T01:34:11.094Z,97.90
2018-06-23T01:36:39.643Z,97.90
2018-06-23T01:39:10.455Z,98.10
2018-06-23T01:41:38.975Z,97.90
2018-06-23T01:44:07.715Z,97.60
2018-06-23T01:46:37.270Z,97.60
2018-06-23T01:49:06.123Z,97.50
2018-06-23T01:54:03.381Z,97.30
2018-06-23T01:56:31.886Z,97.10
2018-06-23T01:59:00.366Z,97.10
2018-06-23T02:01:29.112Z,97.00
2018-06-23T02:03:57.861Z,96.80
2018-06-23T02:06:26.384Z,96.90
2018-06-23T02:08:54.926Z,96.90
2018-06-23T02:11:23.416Z,96.20
2018-06-23T02:13:57.597Z,96.70
2018-06-23T02:16:31.832Z,96.50
2018-06-23T02:19:05.457Z,96.40
2018-06-23T02:21:39.444Z,96.40
2018-06-23T02:24:13.359Z,96.30
2018-06-23T02:26:47.288Z,96.00
2018-06-23T02:29:20.951Z,96.00
2018-06-23T02:31:54.767Z,96.80
2018-06-23T02:34:28.545Z,96.10
2018-06-23T02:36:57.064Z,96.20
2018-06-23T02:39:26.230Z,96.10
2018-06-23T02:41:54.731Z,95.60
2018-06-23T02:44:23.710Z,96.00
2018-06-23T02:46:52.202Z,96.00
2018-06-23T02:49:20.786Z,96.00
2018-06-23T02:51:49.471Z,95.80
2018-06-23T02:54:17.948Z,96.20
2018-06-23T02:56:46.693Z,96.00
2018-06-23T02:59:19.075Z,96.00
2018-06-23T03:01:48.397Z,96.00
2018-06-23T03:04:17.443Z,96.00
2018-06-23T03:06:45.996Z,96.10
2018-06-23T03:09:14.715Z,96.20
2018-06-23T03:11:43.239Z,96.20
2018-06-23T03:14:11.751Z,96.00
2018-06-23T03:16:40.461Z,96.10
2018-06-23T03:19:09.039Z,96.30
2018-06-23T03:21:37.852Z,96.40
2018-06-23T03:24:06.554Z,96.40
2018-06-23T03:26:35.271Z,96.60
2018-06-23T03:29:03.806Z,96.70
2018-06-23T03:31:32.311Z,96.90
2018-06-23T03:34:00.889Z,97.10
2018-06-23T03:36:29.947Z,97.00
2018-06-23T03:38:58.753Z,96.80
2018-06-23T03:41:27.246Z,96.30
2018-06-23T03:43:55.853Z,96.20
2018-06-23T03:46:24.399Z,96.10
2018-06-23T03:48:52.942Z,96.20
2018-06-23T03:51:21.695Z,96.30
2018-06-23T03:53:50.183Z,96.10
2018-06-23T03:56:18.668Z,96.10
2018-06-23T03:58:47.176Z,96.40
2018-06-23T04:01:15.915Z,96.50
2018-06-23T04:03:44.511Z,96.70
2018-06-23T04:06:13.033Z,97.00
2018-06-23T04:08:41.507Z,96.70
2018-06-23T04:11:10.080Z,96.60
2018-06-23T04:13:38.736Z,96.50
2018-06-23T04:16:07.484Z,96.70
2018-06-23T04:18:36.158Z,96.50
2018-06-23T04:21:04.811Z,96.30
2018-06-23T04:23:33.258Z,96.30
2018-06-23T04:26:01.974Z,96.30
2018-06-23T04:28:30.460Z,96.50
2018-06-23T04:30:58.938Z,96.20
2018-06-23T04:33:27.833Z,96.30
2018-06-23T04:35:56.724Z,96.60
2018-06-23T04:38:25.427Z,96.40
2018-06-23T04:40:53.976Z,96.50
2018-06-23T04:43:22.832Z,96.40
2018-06-23T04:45:51.684Z,96.30
2018-06-23T04:48:20.405Z,96.70
2018-06-23T04:50:48.903Z,96.70
2018-06-23T04:53:17.396Z,96.60
2018-06-23T04:55:46.794Z,96.80
2018-06-23T04:58:15.277Z,96.70
2018-06-23T05:00:43.832Z,96.60
2018-06-23T05:05:40.703Z,96.30
2018-06-23T05:08:09.210Z,96.20
2018-06-23T05:10:37.703Z,96.30
2018-06-23T05:13:06.619Z,96.30
2018-06-23T05:15:35.336Z,95.20
2018-06-23T05:20:32.332Z,96.00
2018-06-23T05:23:00.865Z,96.20
2018-06-23T05:25:29.341Z,96.00
2018-06-23T05:27:57.830Z,96.00
2018-06-23T05:30:26.357Z,95.80
2018-06-23T05:32:54.848Z,96.00
2018-06-23T05:35:23.461Z,95.90
2018-06-23T05:37:52.624Z,96.10
2018-06-23T05:40:21.108Z,96.00
2018-06-23T05:42:49.778Z,95.90
2018-06-23T05:45:18.339Z,95.60
2018-06-23T05:47:46.937Z,95.50
2018-06-23T05:50:15.719Z,95.80
2018-06-23T05:52:44.219Z,95.90
2018-06-23T05:55:12.705Z,95.70
2018-06-23T05:57:41.215Z,95.80
2018-06-23T06:00:10.077Z,95.90
2018-06-23T06:02:38.576Z,95.80
2018-06-23T06:05:07.408Z,95.70
2018-06-23T06:07:36.178Z,96.00
2018-06-23T06:10:04.844Z,96.20
2018-06-23T06:12:33.398Z,95.80
2018-06-23T06:15:01.916Z,95.70
2018-06-23T06:17:32.695Z,95.80
2018-06-23T06:20:02.557Z,95.90
2018-06-23T06:22:32.735Z,95.90
2018-06-23T06:25:01.276Z,96.00
2018-06-23T06:27:29.893Z,96.20
2018-06-23T06:29:59.101Z,96.10
2018-06-23T06:32:28.083Z,96.40
2018-06-23T06:34:56.864Z,96.60
2018-06-23T06:37:25.374Z,96.50
2018-06-23T06:39:54.177Z,96.30
2018-06-23T06:42:22.927Z,96.50
2018-06-23T06:44:51.863Z,96.60
2018-06-23T06:47:20.998Z,96.80
2018-06-23T06:49:49.608Z,97.10
2018-06-23T06:52:18.247Z,97.60
2018-06-23T06:54:47.112Z,97.70
2018-06-23T06:57:15.863Z,98.20
2018-06-23T06:59:44.305Z,98.30
2018-06-23T07:02:12.913Z,98.90
2018-06-23T07:04:41.411Z,99.80
2018-06-23T07:07:10.065Z,99.90
2018-06-23T07:09:39.021Z,99.90
2018-06-23T07:12:07.862Z,99.90
2018-06-23T07:14:36.602Z,99.90
2018-06-23T07:17:05.398Z,99.90
2018-06-23T07:19:34.071Z,99.90
2018-06-23T07:22:03.027Z,99.90
2018-06-23T07:24:31.598Z,99.90
2018-06-23T07:27:00.483Z,99.90
2018-06-23T07:29:28.952Z,99.90
2018-06-23T07:31:57.629Z,99.90
2018-06-23T07:34:26.214Z,99.90
2018-06-23T07:36:54.920Z,99.90
2018-06-23T07:41:52.374Z,99.90
2018-06-23T07:44:20.919Z,99.90
2018-06-23T07:46:49.499Z,99.90
2018-06-23T07:49:18.405Z,99.90
2018-06-23T07:51:47.213Z,99.90
2018-06-23T07:54:15.940Z,99.90
2018-06-23T07:56:44.757Z,99.90
2018-06-23T07:59:13.589Z,99.90
2018-06-23T08:01:43.309Z,99.90
2018-06-23T08:04:12.323Z,99.90
2018-06-23T08:06:40.906Z,99.90
2018-06-23T08:09:10.082Z,99.90
2018-06-23T08:11:39.163Z,99.90
2018-06-23T08:14:07.842Z,99.90
2018-06-23T08:16:36.643Z,99.90
2018-06-23T08:19:05.801Z,99.40
2018-06-23T08:21:34.358Z,99.80
2018-06-23T08:24:03.458Z,99.40
2018-06-23T08:26:32.209Z,98.30
2018-06-23T08:29:00.699Z,97.90
2018-06-23T08:31:29.313Z,97.10
2018-06-23T08:33:58.021Z,96.50
2018-06-23T08:36:26.814Z,96.70
2018-06-23T08:38:55.450Z,97.50
2018-06-23T08:41:24.355Z,97.10
2018-06-23T08:43:52.936Z,96.90
2018-06-23T08:46:21.634Z,96.20
2018-06-23T08:48:50.529Z,96.00
2018-06-23T08:51:19.545Z,95.30
2018-06-23T08:53:48.109Z,94.90
2018-06-23T08:56:18.210Z,95.30
2018-06-23T08:58:47.068Z,96.10
2018-06-23T09:01:15.609Z,95.20
2018-06-23T09:03:44.584Z,95.20
2018-06-23T09:06:13.585Z,94.50
2018-06-23T09:08:42.461Z,94.10
2018-06-23T09:11:11.648Z,94.90
2018-06-23T09:13:40.458Z,94.30
2018-06-23T09:16:09.200Z,93.80
2018-06-23T09:18:38.302Z,93.40
2018-06-23T09:21:08.256Z,93.60
2018-06-23T09:23:36.809Z,92.90
2018-06-23T09:26:05.593Z,91.10
2018-06-23T09:28:34.154Z,90.60
2018-06-23T09:31:03.147Z,87.90
2018-06-23T09:33:31.820Z,85.60
2018-06-23T09:36:00.784Z,85.70
2018-06-23T09:38:29.659Z,86.30
2018-06-23T09:40:58.257Z,84.10
2018-06-23T09:43:27.077Z,83.70
2018-06-23T09:45:55.860Z,84.00
2018-06-23T09:48:24.556Z,84.80
2018-06-23T09:50:53.330Z,84.60
2018-06-23T09:53:21.956Z,83.90
2018-06-23T09:55:50.554Z,84.90
2018-06-23T09:58:19.428Z,85.30
2018-06-23T10:00:48.166Z,86.40
2018-06-23T10:03:16.881Z,85.10
2018-06-23T10:05:45.604Z,83.20
2018-06-23T10:08:14.359Z,81.00
2018-06-23T10:10:43.073Z,80.20
2018-06-23T10:13:11.774Z,78.70
2018-06-23T10:15:40.765Z,74.00
2018-06-23T10:18:09.409Z,73.40
2018-06-23T10:20:38.042Z,71.30
2018-06-23T10:23:06.653Z,73.00
2018-06-23T10:25:35.570Z,72.70
2018-06-23T10:28:04.395Z,68.40
2018-06-23T10:30:33.295Z,65.30
2018-06-23T10:33:02.078Z,64.00
2018-06-23T10:35:30.655Z,65.90
2018-06-23T10:37:59.278Z,64.90
2018-06-23T10:40:27.790Z,65.40
2018-06-23T10:42:56.536Z,68.20
2018-06-23T10:45:25.233Z,66.40
2018-06-23T10:47:54.083Z,65.20
2018-06-23T10:50:22.748Z,63.80
2018-06-23T10:55:20.190Z,63.10
2018-06-23T10:57:48.823Z,63.80
2018-06-23T11:00:17.311Z,66.60
2018-06-23T11:02:45.849Z,69.60
2018-06-23T11:05:14.617Z,71.70
2018-06-23T11:07:43.362Z,71.50
2018-06-23T11:10:12.131Z,71.20
2018-06-23T11:12:41.092Z,68.90
2018-06-23T11:15:09.715Z,64.80
2018-06-23T11:17:38.408Z,61.50
2018-06-23T11:20:07.263Z,59.20
2018-06-23T11:22:37.972Z,56.40
2018-06-23T11:25:06.687Z,54.60
2018-06-23T11:27:35.187Z,56.50
2018-06-23T11:30:04.377Z,59.60
2018-06-23T11:35:01.243Z,57.90
2018-06-23T11:37:29.834Z,56.40
2018-06-23T11:39:58.541Z,53.10
2018-06-23T11:42:27.179Z,53.40
2018-06-23T11:44:55.859Z,54.50
2018-06-23T11:47:24.388Z,55.10
2018-06-23T11:49:53.409Z,54.30
2018-06-23T11:52:22.464Z,56.10
2018-06-23T11:54:50.977Z,54.10
2018-06-23T11:57:20.052Z,55.80
2018-06-23T11:59:48.874Z,56.70
2018-06-23T12:02:17.415Z,58.50
2018-06-23T12:04:46.255Z,59.80
2018-06-23T12:07:15.104Z,55.60
2018-06-23T12:09:43.755Z,54.30
2018-06-23T12:12:12.407Z,55.50
2018-06-23T12:14:41.134Z,55.40
2018-06-23T12:17:09.694Z,57.80
2018-06-23T12:19:38.775Z,58.80
2018-06-23T12:22:07.564Z,58.10
2018-06-23T12:24:36.459Z,58.20
2018-06-23T12:27:05.065Z,58.70
2018-06-23T12:29:33.723Z,59.90
2018-06-23T12:32:02.268Z,60.30
2018-06-23T12:34:30.892Z,59.90
2018-06-23T12:36:59.580Z,58.20
2018-06-23T12:39:28.255Z,58.40
2018-06-23T12:41:56.957Z,57.20
2018-06-23T12:44:25.548Z,58.50
2018-06-23T12:46:54.562Z,57.00
2018-06-23T12:49:23.321Z,56.20
2018-06-23T12:51:52.082Z,56.70
2018-06-23T12:54:20.679Z,57.40
2018-06-23T12:56:49.423Z,57.60
2018-06-23T12:59:18.448Z,57.40
2018-06-23T13:01:46.975Z,57.30
2018-06-23T13:04:15.618Z,56.30
2018-06-23T13:06:44.227Z,56.00
2018-06-23T13:11:41.686Z,58.10
2018-06-23T13:14:10.306Z,60.60
2018-06-23T13:16:38.807Z,60.80
2018-06-23T13:19:07.377Z,60.00
2018-06-23T13:21:35.980Z,60.90
2018-06-23T13:24:04.981Z,59.30
2018-06-23T13:26:33.653Z,60.50
2018-06-23T13:29:02.259Z,62.10
2018-06-23T13:31:30.787Z,62.10
2018-06-23T13:33:59.581Z,63.00
2018-06-23T13:38:56.759Z,60.80
2018-06-23T13:41:25.803Z,58.90
2018-06-23T13:43:54.452Z,55.50
2018-06-23T13:46:23.140Z,50.20
2018-06-23T13:48:52.151Z,46.30
2018-06-23T13:51:20.701Z,45.60
2018-06-23T13:53:49.896Z,48.10
2018-06-23T13:56:18.629Z,49.30
2018-06-23T13:58:47.262Z,51.90
2018-06-23T14:01:16.185Z,54.60
2018-06-23T14:03:44.829Z,58.20
2018-06-23T14:06:13.421Z,58.40
2018-06-23T14:08:42.332Z,56.90
2018-06-23T14:11:11.006Z,57.30
2018-06-23T14:13:39.675Z,55.40
2018-06-23T14:16:08.713Z,52.70
2018-06-23T14:18:37.431Z,51.10
2018-06-23T14:21:06.174Z,54.00
2018-06-23T14:23:34.916Z,54.70
2018-06-23T14:26:04.011Z,54.70
2018-06-23T14:28:32.688Z,51.80
2018-06-23T14:31:01.244Z,47.20
2018-06-23T14:33:30.183Z,45.20
2018-06-23T14:35:58.734Z,45.20
2018-06-23T14:38:27.434Z,47.20
2018-06-23T14:40:56.415Z,47.90
2018-06-23T14:43:24.926Z,46.40
2018-06-23T14:45:53.838Z,45.30
2018-06-23T14:48:22.674Z,43.10
2018-06-23T14:50:51.480Z,36.70
2018-06-23T14:53:20.079Z,34.20
2018-06-23T14:55:48.633Z,35.70
2018-06-23T14:58:17.347Z,40.80
2018-06-23T15:00:46.070Z,41.50
2018-06-23T15:03:15.145Z,38.90
2018-06-23T15:05:43.811Z,37.40
2018-06-23T15:10:57.628Z,35.80
2018-06-23T15:13:26.469Z,32.70
2018-06-23T15:15:55.260Z,33.60
2018-06-23T15:18:23.936Z,31.50
2018-06-23T15:20:52.666Z,31.70
2018-06-23T15:23:21.228Z,32.60
2018-06-23T15:25:49.745Z,30.70
2018-06-23T15:28:18.377Z,31.10
2018-06-23T15:30:47.355Z,32.70
2018-06-23T15:33:15.922Z,34.10
2018-06-23T15:35:44.453Z,32.40
2018-06-23T15:38:13.096Z,33.50
2018-06-23T15:40:41.597Z,33.40
2018-06-23T15:43:10.399Z,34.70
2018-06-23T15:45:38.907Z,34.30
2018-06-23T15:48:07.439Z,36.40
2018-06-23T15:50:36.184Z,39.40
2018-06-23T15:53:04.798Z,42.30
2018-06-23T15:55:33.504Z,43.70
2018-06-23T15:58:02.397Z,41.40
2018-06-23T16:00:31.380Z,44.10
2018-06-23T16:02:59.972Z,45.60
2018-06-23T16:05:28.528Z,46.00
2018-06-23T16:07:57.083Z,45.90
2018-06-23T16:10:26.441Z,46.00
2018-06-23T16:12:55.860Z,48.60
2018-06-23T16:15:24.646Z,49.90
2018-06-23T16:17:53.575Z,48.00
2018-06-23T16:20:22.181Z,50.60
2018-06-23T16:22:50.847Z,50.90
2018-06-23T16:25:19.384Z,51.70
2018-06-23T16:27:47.891Z,51.60
2018-06-23T16:30:16.741Z,52.30
2018-06-23T16:32:45.300Z,55.60
2018-06-23T16:37:42.215Z,54.30
2018-06-23T16:40:10.987Z,55.10
2018-06-23T16:42:39.743Z,55.00
2018-06-23T16:45:08.662Z,54.20
2018-06-23T16:47:37.212Z,54.10
2018-06-23T16:50:06.023Z,54.70
2018-06-23T16:52:34.939Z,53.50
2018-06-23T16:55:03.504Z,54.90
2018-06-23T16:57:32.343Z,54.00
2018-06-23T17:00:00.941Z,55.30
2018-06-23T17:02:29.789Z,55.80
2018-06-23T17:04:58.660Z,57.60
2018-06-23T17:07:27.237Z,57.40
2018-06-23T17:09:55.914Z,56.70
2018-06-23T17:12:24.719Z,58.30
2018-06-23T17:14:53.510Z,58.40
2018-06-23T17:17:22.227Z,58.70
2018-06-23T17:19:50.817Z,58.80
2018-06-23T17:22:19.334Z,59.70
2018-06-23T17:24:48.199Z,60.30
2018-06-23T17:27:16.855Z,60.70
2018-06-23T17:29:45.515Z,62.50
2018-06-23T17:32:14.481Z,61.50
2018-06-23T17:34:43.277Z,60.10
2018-06-23T17:37:12.095Z,60.20
2018-06-23T17:39:41.600Z,60.50
2018-06-23T17:42:10.572Z,59.80
2018-06-23T17:44:39.152Z,59.90
2018-06-23T17:47:07.920Z,60.10
2018-06-23T17:49:36.592Z,59.20
2018-06-23T17:52:05.286Z,59.00
2018-06-23T17:57:02.660Z,59.30
2018-06-23T17:59:31.189Z,58.20
2018-06-23T18:01:59.823Z,59.00
2018-06-23T18:06:57.286Z,59.90
2018-06-23T18:09:25.952Z,60.90
2018-06-23T18:11:54.618Z,61.20
2018-06-23T18:14:23.265Z,62.00
2018-06-23T18:16:52.081Z,62.50
2018-06-23T18:19:20.795Z,62.40
2018-06-23T18:21:49.826Z,64.00
2018-06-23T18:24:18.829Z,63.10
2018-06-23T18:26:47.336Z,64.10
2018-06-23T18:29:16.040Z,63.90
2018-06-23T18:31:44.843Z,64.20
2018-06-23T18:34:13.527Z,62.90
2018-06-23T18:36:42.300Z,64.90
2018-06-23T18:39:11.765Z,65.80
2018-06-23T18:41:40.350Z,66.50
2018-06-23T18:44:09.139Z,67.00
2018-06-23T18:46:37.799Z,66.90
2018-06-23T18:49:06.406Z,67.60
2018-06-23T18:51:34.944Z,67.40
2018-06-23T18:54:03.503Z,67.80
2018-06-23T18:56:32.115Z,69.80
2018-06-23T18:59:00.812Z,70.40
2018-06-23T19:01:29.360Z,70.30
2018-06-23T19:03:57.971Z,69.20
2018-06-23T19:06:26.564Z,69.50
2018-06-23T19:08:55.472Z,69.80
2018-06-23T19:11:24.054Z,69.80
2018-06-23T19:13:52.897Z,70.30
2018-06-23T19:16:21.455Z,70.70
2018-06-23T19:18:50.111Z,70.60
2018-06-23T19:21:18.594Z,71.70
2018-06-23T19:23:47.492Z,71.80
2018-06-23T19:26:16.158Z,72.40
2018-06-23T19:28:44.743Z,72.60
2018-06-23T19:31:13.612Z,73.40
2018-06-23T19:33:42.327Z,73.10
2018-06-23T19:36:11.132Z,73.60
2018-06-23T19:38:39.831Z,74.50
2018-06-23T19:41:23.529Z,74.40
2018-06-23T19:43:52.296Z,75.00
2018-06-23T19:46:21.117Z,75.50
2018-06-23T19:48:50.055Z,75.90
2018-06-23T19:51:18.689Z,76.00
2018-06-23T19:53:47.836Z,76.40
2018-06-23T19:56:16.330Z,76.40
2018-06-23T19:58:44.994Z,76.00
2018-06-23T20:01:13.560Z,76.80
2018-06-23T20:03:42.286Z,76.80
2018-06-23T20:06:11.215Z,77.30
2018-06-23T20:08:39.997Z,77.90
2018-06-23T20:11:08.585Z,78.60
2018-06-23T20:13:37.411Z,79.40
2018-06-23T20:16:06.138Z,80.20
2018-06-23T20:18:34.877Z,80.90
2018-06-23T20:21:03.704Z,81.20
2018-06-23T20:23:32.544Z,81.50
2018-06-23T20:26:01.198Z,82.60
2018-06-23T20:28:29.744Z,83.20
2018-06-23T20:30:58.373Z,84.40
2018-06-23T20:33:27.248Z,85.40
2018-06-23T20:38:24.245Z,86.40
2018-06-23T20:40:52.872Z,87.60
2018-06-23T20:43:21.406Z,90.00
2018-06-23T20:45:50.202Z,90.00
2018-06-23T20:48:18.825Z,91.60
2018-06-23T20:50:47.591Z,91.20
2018-06-23T20:53:16.420Z,91.70
2018-06-23T20:55:44.927Z,92.80
2018-06-23T20:58:14.021Z,93.30
2018-06-23T21:00:42.748Z,93.60
2018-06-23T21:03:11.520Z,93.50
2018-06-23T21:05:40.078Z,93.80
2018-06-23T21:08:08.823Z,94.00
2018-06-23T21:10:41.110Z,94.10
2018-06-23T21:13:10.127Z,94.30
2018-06-23T21:15:38.716Z,94.70
2018-06-23T21:18:07.585Z,94.80
2018-06-23T21:20:36.347Z,94.70
2018-06-23T21:23:05.053Z,94.90
2018-06-23T21:25:33.998Z,95.60
2018-06-23T21:28:02.717Z,95.90
2018-06-23T21:30:31.286Z,95.90
2018-06-23T21:33:00.014Z,95.40
2018-06-23T21:35:28.860Z,95.50
2018-06-23T21:37:57.381Z,95.20
2018-06-23T21:40:26.013Z,95.50
2018-06-23T21:42:54.651Z,95.70
2018-06-23T21:45:23.496Z,96.10
2018-06-23T21:47:52.081Z,95.90
2018-06-23T21:50:26.118Z,96.60
2018-06-23T21:52:54.927Z,96.90
2018-06-23T21:55:23.682Z,96.90
2018-06-23T21:57:52.400Z,97.20
2018-06-23T22:00:40.806Z,97.30
2018-06-23T22:03:11.771Z,97.60
2018-06-23T22:05:40.299Z,97.60
2018-06-23T22:08:09.644Z,97.70
2018-06-23T22:10:38.411Z,98.00
2018-06-23T22:13:07.247Z,98.30
2018-06-23T22:15:35.803Z,97.80
2018-06-23T22:18:04.577Z,97.80
2018-06-23T22:20:33.094Z,98.20
2018-06-23T22:23:01.628Z,98.30
2018-06-23T22:25:30.349Z,98.40
2018-06-23T22:27:59.095Z,98.50
2018-06-23T22:30:27.839Z,98.30
2018-06-23T22:32:56.587Z,98.20
2018-06-23T22:35:25.480Z,98.10
2018-06-23T22:37:54.335Z,98.20
2018-06-23T22:40:22.859Z,98.60
2018-06-23T22:45:19.815Z,98.70
2018-06-23T22:47:48.364Z,99.20
2018-06-23T22:50:16.877Z,99.20
2018-06-23T22:52:45.438Z,99.20
2018-06-23T22:55:14.494Z,99.30
2018-06-23T22:57:43.053Z,99.30
2018-06-23T23:00:13.568Z,99.50
2018-06-23T23:02:43.342Z,99.50
2018-06-23T23:05:12.100Z,99.90
2018-06-23T23:07:41.487Z,99.60
2018-06-23T23:10:10.861Z,99.40
2018-06-23T23:12:39.756Z,99.20
2018-06-23T23:15:08.246Z,99.00
2018-06-23T23:17:36.747Z,98.90
2018-06-23T23:20:05.915Z,99.10
2018-06-23T23:22:34.520Z,99.00
2018-06-23T23:25:03.217Z,99.00
2018-06-23T23:27:31.704Z,99.30
2018-06-23T23:30:00.263Z,99.70
2018-06-23T23:32:28.765Z,99.70
2018-06-23T23:34:57.284Z,99.40
2018-06-23T23:37:26.052Z,99.50
2018-06-23T23:39:54.559Z,99.50
2018-06-23T23:42:23.049Z,99.60
2018-06-23T23:44:51.519Z,99.80
2018-06-23T23:47:20.076Z,99.90
2018-06-23T23:49:48.577Z,99.80
2018-06-23T23:52:17.387Z,99.80
2018-06-23T23:54:46.546Z,99.90
2018-06-23T23:57:15.028Z,99.90
2018-06-23T23:59:43.724Z,99.90
